createdAt,value
2022-10-24T00:00:18.298Z,99894.94
2022-10-24T00:01:22.784Z,99894.94
2022-10-24T00:02:24.977Z,99900.28
2022-10-24T00:03:28.738Z,99884.80
2022-10-24T00:04:34.213Z,99886.61
2022-10-24T00:05:36.942Z,99885.70
2022-10-24T00:06:40.794Z,99894.41
2022-10-24T00:07:43.027Z,99892.67
2022-10-24T00:08:45.633Z,99886.75
2022-10-24T00:09:47.421Z,99895.60
2022-10-24T00:10:50.424Z,99893.05
2022-10-24T00:11:52.562Z,99906.23
2022-10-24T00:12:55.226Z,99903.70
2022-10-24T00:13:57.487Z,99907.09
2022-10-24T00:14:59.579Z,99909.62
2022-10-24T00:16:01.456Z,99910.48
2022-10-24T00:17:04.050Z,99904.56
2022-10-24T00:18:06.187Z,99902.91
2022-10-24T00:19:08.887Z,99901.23
2022-10-24T00:20:13.736Z,99904.78
2022-10-24T00:21:16.031Z,99904.78
2022-10-24T00:22:17.819Z,99905.64
2022-10-24T00:23:19.546Z,99904.78
2022-10-24T00:24:21.585Z,99911.09
2022-10-24T00:25:23.428Z,99907.70
2022-10-24T00:26:25.361Z,99918.03
2022-10-24T00:27:27.181Z,99910.23
2022-10-24T00:28:30.335Z,99912.11
2022-10-24T00:29:32.105Z,99910.44
2022-10-24T00:30:34.033Z,99904.45
2022-10-24T00:31:36.742Z,99904.45
2022-10-24T00:32:38.608Z,99906.14
2022-10-24T00:33:42.172Z,99910.48
2022-10-24T00:34:45.227Z,99906.19
2022-10-24T00:35:47.490Z,99911.38
2022-10-24T00:36:58.013Z,99910.48
2022-10-24T00:38:00.205Z,99901.71
2022-10-24T00:39:02.367Z,99903.48
2022-10-24T00:40:06.439Z,99910.48
2022-10-24T00:41:11.972Z,99918.23
2022-10-24T00:42:13.799Z,99906.91
2022-10-24T00:43:19.730Z,99910.37
2022-10-24T00:44:26.003Z,99906.88
2022-10-24T00:45:50.518Z,99906.73
2022-10-24T00:47:14.494Z,99906.62
2022-10-24T00:48:25.399Z,99911.67
2022-10-24T00:49:37.215Z,99914.02
2022-10-24T00:50:39.291Z,99912.94
2022-10-24T00:51:42.464Z,99904.30
2022-10-24T00:52:47.400Z,99899.29
2022-10-24T00:53:52.058Z,99903.59
2022-10-24T00:54:56.483Z,99895.60
2022-10-24T00:56:01.589Z,99908.45
2022-10-24T00:57:22.505Z,99908.45
2022-10-24T00:58:29.240Z,99900.66
2022-10-24T00:59:35.402Z,99897.73
2022-10-24T01:00:38.012Z,99900.66
2022-10-24T01:01:43.006Z,99905.75
2022-10-24T01:02:46.463Z,99904.81
2022-10-24T01:03:48.490Z,99899.75
2022-10-24T01:04:50.241Z,99902.54
2022-10-24T01:06:10.752Z,99904.30
2022-10-24T01:07:48.931Z,99906.95
2022-10-24T01:09:04.340Z,99904.42
2022-10-24T01:10:13.054Z,99906.91
2022-10-24T01:11:21.340Z,99914.70
2022-10-24T01:12:59.185Z,99904.30
2022-10-24T01:14:04.791Z,99911.31
2022-10-24T01:15:22.410Z,99918.20
2022-10-24T01:16:43.239Z,99916.41
2022-10-24T01:17:57.661Z,99908.53
2022-10-24T01:19:26.819Z,99904.88
2022-10-24T01:20:35.598Z,99912.86
2022-10-24T01:21:44.095Z,99921.45
2022-10-24T01:23:05.759Z,99913.73
2022-10-24T01:24:41.741Z,99908.60
2022-10-24T01:25:47.219Z,99905.14
2022-10-24T01:26:59.008Z,99916.41
2022-10-24T01:28:24.903Z,99909.51
2022-10-24T01:29:52.117Z,99912.94
2022-10-24T01:31:06.694Z,99917.30
2022-10-24T01:32:17.935Z,99914.74
2022-10-24T01:33:38.572Z,99912.86
2022-10-24T01:34:49.958Z,99911.06
2022-10-24T01:36:04.721Z,99918.06
2022-10-24T01:37:14.917Z,99916.26
2022-10-24T01:38:35.713Z,99921.45
2022-10-24T01:39:41.799Z,99914.70
2022-10-24T01:40:47.552Z,99913.84
2022-10-24T01:41:51.076Z,99919.11
2022-10-24T01:42:56.722Z,99916.41
2022-10-24T01:44:26.806Z,99927.63
2022-10-24T01:45:32.296Z,99924.24
2022-10-24T01:46:46.554Z,99921.45
2022-10-24T01:47:52.144Z,99926.80
2022-10-24T01:49:06.904Z,99924.20
2022-10-24T01:50:12.881Z,99924.20
2022-10-24T01:51:17.896Z,99921.71
2022-10-24T01:52:20.842Z,99918.20
2022-10-24T01:53:25.101Z,99922.50
2022-10-24T01:54:29.074Z,99920.81
2022-10-24T01:55:33.104Z,99924.31
2022-10-24T01:56:35.303Z,99926.01
2022-10-24T01:57:37.679Z,99923.41
2022-10-24T01:58:39.659Z,99925.11
2022-10-24T01:59:48.505Z,99921.64
2022-10-24T02:00:53.752Z,99921.71
2022-10-24T02:02:05.779Z,99918.20
2022-10-24T02:03:17.259Z,99924.31
2022-10-24T02:04:22.080Z,99926.01
2022-10-24T02:05:30.525Z,99918.14
2022-10-24T02:06:36.627Z,99918.20
2022-10-24T02:07:43.044Z,99922.55
2022-10-24T02:08:48.625Z,99920.88
2022-10-24T02:09:54.263Z,99914.81
2022-10-24T02:10:59.761Z,99939.00
2022-10-24T02:12:03.635Z,99929.41
2022-10-24T02:13:14.873Z,99921.60
2022-10-24T02:14:23.143Z,99919.91
2022-10-24T02:15:28.645Z,99932.00
2022-10-24T02:16:31.794Z,99932.83
2022-10-24T02:17:33.941Z,99926.80
2022-10-24T02:18:38.484Z,99925.83
2022-10-24T02:19:40.808Z,99925.87
2022-10-24T02:21:05.551Z,99913.73
2022-10-24T02:22:29.250Z,99917.23
2022-10-24T02:23:46.676Z,99923.41
2022-10-24T02:26:12.551Z,99915.17
2022-10-24T02:27:21.055Z,99919.05
2022-10-24T02:28:25.677Z,99921.60
2022-10-24T02:29:33.995Z,99921.60
2022-10-24T02:30:39.564Z,99916.52
2022-10-24T02:31:45.070Z,99905.21
2022-10-24T02:32:50.587Z,99916.44
2022-10-24T02:33:54.399Z,99920.02
2022-10-24T02:34:58.076Z,99915.80
2022-10-24T02:36:02.977Z,99912.40
2022-10-24T02:37:07.935Z,99923.77
2022-10-24T02:38:18.860Z,99920.38
2022-10-24T02:39:22.484Z,99920.45
2022-10-24T02:40:25.336Z,99922.22
2022-10-24T02:41:33.730Z,99929.29
2022-10-24T02:42:38.451Z,99935.39
2022-10-24T02:43:42.075Z,99939.86
2022-10-24T02:44:46.375Z,99938.06
2022-10-24T02:45:51.677Z,99933.69
2022-10-24T02:46:57.365Z,99938.06
2022-10-24T02:48:02.846Z,99936.36
2022-10-24T02:49:06.256Z,99943.25
2022-10-24T02:50:09.558Z,99933.83
2022-10-24T02:51:14.559Z,99936.36
2022-10-24T02:52:17.684Z,99934.66
2022-10-24T02:53:22.617Z,99948.45
2022-10-24T02:54:24.694Z,99948.45
2022-10-24T02:55:26.830Z,99934.55
2022-10-24T02:56:29.551Z,99943.19
2022-10-24T02:57:31.441Z,99938.57
2022-10-24T02:58:33.080Z,99948.06
2022-10-24T02:59:34.819Z,99942.14
2022-10-24T03:00:36.705Z,99949.94
2022-10-24T03:01:38.622Z,99953.52
2022-10-24T03:02:40.891Z,99937.67
2022-10-24T03:03:43.043Z,99937.67
2022-10-24T03:04:44.923Z,99935.07
2022-10-24T03:05:47.723Z,99939.36
2022-10-24T03:06:49.746Z,99939.50
2022-10-24T03:07:51.495Z,99937.84
2022-10-24T03:08:53.338Z,99931.75
2022-10-24T03:09:54.996Z,99944.81
2022-10-24T03:10:57.280Z,99939.50
2022-10-24T03:11:59.257Z,99948.93
2022-10-24T03:13:01.134Z,99941.31
2022-10-24T03:14:02.968Z,99939.75
2022-10-24T03:15:06.095Z,99946.75
2022-10-24T03:16:11.635Z,99948.45
2022-10-24T03:17:12.625Z,99944.23
2022-10-24T03:18:15.571Z,99955.45
2022-10-24T03:19:17.498Z,99958.95
2022-10-24T03:20:19.493Z,99964.16
2022-10-24T03:21:21.545Z,99963.25
2022-10-24T03:22:24.721Z,99954.66
2022-10-24T03:23:27.664Z,99958.05
2022-10-24T03:24:43.420Z,99963.19
2022-10-24T03:25:33.511Z,99959.82
2022-10-24T03:26:35.417Z,99960.55
2022-10-24T03:27:37.855Z,99964.05
2022-10-24T03:28:39.968Z,99964.95
2022-10-24T03:29:42.383Z,99969.97
2022-10-24T03:30:44.369Z,99962.94
2022-10-24T03:31:46.292Z,99956.05
2022-10-24T03:32:48.337Z,99962.76
2022-10-24T03:33:50.440Z,99962.76
2022-10-24T03:34:52.641Z,99954.17
2022-10-24T03:35:55.064Z,99961.97
2022-10-24T03:36:57.041Z,99953.41
2022-10-24T03:37:59.263Z,99955.10
2022-10-24T03:39:01.145Z,99955.20
2022-10-24T03:40:03.738Z,99955.34
2022-10-24T03:41:07.087Z,99959.61
2022-10-24T03:42:08.947Z,99948.45
2022-10-24T03:43:10.597Z,99958.95
2022-10-24T03:44:12.618Z,99954.73
2022-10-24T03:45:14.904Z,99962.42
2022-10-24T03:46:17.728Z,99956.36
2022-10-24T03:47:19.376Z,99960.41
2022-10-24T03:48:21.051Z,99960.41
2022-10-24T03:49:22.865Z,99959.68
2022-10-24T03:50:24.913Z,99956.25
2022-10-24T03:51:26.538Z,99951.88
2022-10-24T03:52:28.640Z,99951.88
2022-10-24T03:53:31.436Z,99961.20
2022-10-24T03:54:33.551Z,99952.44
2022-10-24T03:55:35.556Z,99962.11
2022-10-24T03:56:38.030Z,99969.00
2022-10-24T03:57:40.012Z,99957.81
2022-10-24T03:58:42.198Z,99957.02
2022-10-24T03:59:44.251Z,99955.28
2022-10-24T04:00:46.083Z,99960.55
2022-10-24T04:01:48.797Z,99957.88
2022-10-24T04:02:51.089Z,99962.11
2022-10-24T04:03:53.080Z,99960.41
2022-10-24T04:04:54.821Z,99957.02
2022-10-24T04:05:56.542Z,99961.20
2022-10-24T04:06:59.062Z,99961.31
2022-10-24T04:08:02.527Z,99956.25
2022-10-24T04:09:04.910Z,99959.92
2022-10-24T04:10:08.118Z,99959.20
2022-10-24T04:11:10.119Z,99961.00
2022-10-24T04:12:11.938Z,99959.20
2022-10-24T04:13:14.174Z,99956.84
2022-10-24T04:14:16.075Z,99968.13
2022-10-24T04:15:17.964Z,99969.10
2022-10-24T04:16:21.312Z,99965.67
2022-10-24T04:17:23.332Z,99964.88
2022-10-24T04:18:25.099Z,99969.94
2022-10-24T04:19:27.055Z,99950.42
2022-10-24T04:20:29.030Z,99950.42
2022-10-24T04:21:30.872Z,99973.56
2022-10-24T04:22:33.294Z,99973.56
2022-10-24T04:23:35.429Z,99969.94
2022-10-24T04:24:37.430Z,99974.37
2022-10-24T04:25:39.928Z,99963.18
2022-10-24T04:26:42.337Z,99970.17
2022-10-24T04:27:44.646Z,99965.88
2022-10-24T04:28:46.580Z,99966.67
2022-10-24T04:29:49.161Z,99973.67
2022-10-24T04:30:56.480Z,99973.80
2022-10-24T04:31:58.955Z,99979.80
2022-10-24T04:33:00.787Z,99976.41
2022-10-24T04:34:02.679Z,99978.20
2022-10-24T04:35:06.376Z,99976.34
2022-10-24T04:36:09.147Z,99973.80
2022-10-24T04:37:11.437Z,99983.40
2022-10-24T04:38:13.692Z,99977.20
2022-10-24T04:39:18.348Z,99977.94
2022-10-24T04:40:20.386Z,99970.31
2022-10-24T04:41:22.528Z,99977.20
2022-10-24T04:42:29.702Z,99982.40
2022-10-24T04:43:32.065Z,99978.14
2022-10-24T04:44:35.102Z,99977.20
2022-10-24T04:45:37.643Z,99981.59
2022-10-24T04:46:39.608Z,99990.30
2022-10-24T04:47:41.744Z,99994.59
2022-10-24T04:48:44.170Z,99991.09
2022-10-24T04:49:46.548Z,99997.98
2022-10-24T04:50:48.521Z,99993.63
2022-10-24T04:51:50.747Z,99993.56
2022-10-24T04:52:52.494Z,99996.16
2022-10-24T04:53:54.430Z,99995.19
2022-10-24T04:54:56.058Z,99996.16
2022-10-24T04:55:57.798Z,99994.36
2022-10-24T04:57:00.443Z,100004.64
2022-10-24T04:58:03.067Z,100002.05
2022-10-24T04:59:05.445Z,100013.11
2022-10-24T05:00:08.273Z,100004.52
2022-10-24T05:01:10.601Z,100002.71
2022-10-24T05:02:13.184Z,100006.20
2022-10-24T05:03:17.142Z,100004.41
2022-10-24T05:04:19.037Z,100007.84
2022-10-24T05:05:21.311Z,100010.34
2022-10-24T05:06:23.194Z,100007.50
2022-10-24T05:07:25.602Z,100012.63
2022-10-24T05:08:27.523Z,100012.39
2022-10-24T05:09:29.454Z,100011.56
2022-10-24T05:10:31.466Z,100014.20
2022-10-24T05:11:33.397Z,100017.73
2022-10-24T05:12:35.231Z,100017.59
2022-10-24T05:13:38.735Z,100009.69
2022-10-24T05:14:40.669Z,100011.91
2022-10-24T05:15:43.409Z,100015.20
2022-10-24T05:16:45.745Z,100014.64
2022-10-24T05:17:47.884Z,100025.05
2022-10-24T05:18:49.856Z,100024.14
2022-10-24T05:19:51.969Z,100023.17
2022-10-24T05:20:58.478Z,100028.38
2022-10-24T05:22:00.509Z,100023.77
2022-10-24T05:23:03.140Z,100034.30
2022-10-24T05:24:05.118Z,100030.73
2022-10-24T05:25:08.130Z,100031.38
2022-10-24T05:26:11.150Z,100032.22
2022-10-24T05:27:13.503Z,100032.00
2022-10-24T05:28:15.772Z,100036.41
2022-10-24T05:29:18.030Z,100042.62
2022-10-24T05:30:21.214Z,100043.55
2022-10-24T05:31:23.318Z,100039.25
2022-10-24T05:32:25.704Z,100044.14
2022-10-24T05:33:27.499Z,100037.86
2022-10-24T05:34:29.261Z,100042.52
2022-10-24T05:35:31.287Z,100043.48
2022-10-24T05:36:33.115Z,100051.35
2022-10-24T05:37:36.343Z,100042.76
2022-10-24T05:38:38.302Z,100047.23
2022-10-24T05:39:40.248Z,100051.59
2022-10-24T05:40:42.187Z,100041.20
2022-10-24T05:41:46.297Z,100050.66
2022-10-24T05:42:49.053Z,100045.36
2022-10-24T05:43:50.967Z,100053.27
2022-10-24T05:44:53.906Z,100043.10
2022-10-24T05:45:56.011Z,100043.10
2022-10-24T05:46:59.244Z,100052.67
2022-10-24T05:48:01.196Z,100056.00
2022-10-24T05:49:03.245Z,100054.30
2022-10-24T05:50:06.380Z,100049.09
2022-10-24T05:51:08.330Z,100055.09
2022-10-24T05:52:10.682Z,100055.75
2022-10-24T05:53:14.636Z,100044.45
2022-10-24T05:54:17.182Z,100056.55
2022-10-24T05:55:19.021Z,100054.86
2022-10-24T05:56:20.929Z,100055.69
2022-10-24T05:57:23.045Z,100052.19
2022-10-24T05:58:24.962Z,100051.15
2022-10-24T05:59:28.009Z,100061.37
2022-10-24T06:00:30.216Z,100065.02
2022-10-24T06:01:32.828Z,100063.77
2022-10-24T06:02:35.386Z,100064.97
2022-10-24T06:03:37.374Z,100060.81
2022-10-24T06:04:39.569Z,100060.81
2022-10-24T06:05:41.376Z,100071.21
2022-10-24T06:06:45.456Z,100060.63
2022-10-24T06:07:47.934Z,100067.35
2022-10-24T06:08:51.059Z,100069.16
2022-10-24T06:09:53.112Z,100075.62
2022-10-24T06:10:56.353Z,100070.48
2022-10-24T06:11:58.558Z,100071.11
2022-10-24T06:13:00.474Z,100076.82
2022-10-24T06:14:03.118Z,100069.16
2022-10-24T06:15:08.253Z,100075.92
2022-10-24T06:16:11.939Z,100072.66
2022-10-24T06:17:14.386Z,100077.14
2022-10-24T06:18:16.363Z,100072.91
2022-10-24T06:19:18.720Z,100072.91
2022-10-24T06:20:20.704Z,100075.52
2022-10-24T06:21:22.965Z,100079.56
2022-10-24T06:22:25.141Z,100067.28
2022-10-24T06:23:27.456Z,100072.05
2022-10-24T06:24:29.695Z,100074.80
2022-10-24T06:25:31.857Z,100078.84
2022-10-24T06:26:34.340Z,100079.38
2022-10-24T06:27:36.851Z,100081.64
2022-10-24T06:28:38.554Z,100079.48
2022-10-24T06:29:41.199Z,100075.72
2022-10-24T06:30:43.098Z,100072.92
2022-10-24T06:31:44.933Z,100074.36
2022-10-24T06:32:47.273Z,100074.69
2022-10-24T06:33:49.323Z,100074.69
2022-10-24T06:34:51.538Z,100074.23
2022-10-24T06:35:53.259Z,100071.63
2022-10-24T06:36:56.124Z,100076.12
2022-10-24T06:37:58.565Z,100079.56
2022-10-24T06:39:00.347Z,100071.19
2022-10-24T06:40:02.558Z,100077.15
2022-10-24T06:41:10.213Z,100072.39
2022-10-24T06:42:12.201Z,100071.22
2022-10-24T06:43:14.901Z,100064.83
2022-10-24T06:44:17.487Z,100076.23
2022-10-24T06:45:20.316Z,100065.47
2022-10-24T06:46:22.767Z,100073.25
2022-10-24T06:47:24.651Z,100074.67
2022-10-24T06:48:27.002Z,100074.06
2022-10-24T06:49:28.813Z,100070.63
2022-10-24T06:50:31.088Z,100072.62
2022-10-24T06:51:32.993Z,100068.93
2022-10-24T06:52:36.900Z,100075.34
2022-10-24T06:53:38.605Z,100076.58
2022-10-24T06:54:40.353Z,100077.42
2022-10-24T06:55:42.104Z,100077.42
2022-10-24T06:56:44.654Z,100080.73
2022-10-24T06:57:47.071Z,100081.97
2022-10-24T06:58:49.098Z,100082.67
2022-10-24T06:59:50.808Z,100081.84
2022-10-24T07:00:53.209Z,100080.73
2022-10-24T07:01:55.415Z,100083.83
2022-10-24T07:02:57.278Z,100094.92
2022-10-24T07:03:58.913Z,100090.86
2022-10-24T07:05:00.722Z,100083.47
2022-10-24T07:06:11.521Z,100087.96
2022-10-24T07:07:19.273Z,100094.59
2022-10-24T07:08:22.122Z,100085.72
2022-10-24T07:09:23.874Z,100085.84
2022-10-24T07:10:25.932Z,100088.96
2022-10-24T07:11:28.785Z,100091.01
2022-10-24T07:12:30.804Z,100085.01
2022-10-24T07:13:33.164Z,100094.84
2022-10-24T07:14:35.059Z,100082.23
2022-10-24T07:15:37.033Z,100087.45
2022-10-24T07:16:39.259Z,100094.20
2022-10-24T07:17:45.212Z,100086.70
2022-10-24T07:18:47.954Z,100086.78
2022-10-24T07:19:54.189Z,100090.41
2022-10-24T07:21:06.449Z,100090.41
2022-10-24T07:22:09.065Z,100087.69
2022-10-24T07:23:11.099Z,100091.59
2022-10-24T07:24:13.469Z,100090.80
2022-10-24T07:25:16.699Z,100092.45
2022-10-24T07:26:21.027Z,100096.69
2022-10-24T07:27:23.473Z,100094.34
2022-10-24T07:28:25.173Z,100094.55
2022-10-24T07:29:26.951Z,100090.31
2022-10-24T07:30:29.034Z,100085.15
2022-10-24T07:31:33.539Z,100084.20
2022-10-24T07:32:35.527Z,100084.13
2022-10-24T07:33:37.475Z,100081.05
2022-10-24T07:34:40.424Z,100086.28
2022-10-24T07:35:44.012Z,100077.86
2022-10-24T07:36:45.993Z,100073.20
2022-10-24T07:37:48.484Z,100085.66
2022-10-24T07:38:53.514Z,100083.05
2022-10-24T07:39:55.466Z,100085.75
2022-10-24T07:40:57.464Z,100080.89
2022-10-24T07:41:59.470Z,100084.00
2022-10-24T07:43:01.199Z,100077.30
2022-10-24T07:44:03.138Z,100078.41
2022-10-24T07:45:06.514Z,100085.12
2022-10-24T07:46:10.724Z,100087.34
2022-10-24T07:47:13.239Z,100085.28
2022-10-24T07:48:15.234Z,100092.41
2022-10-24T07:49:18.392Z,100078.08
2022-10-24T07:50:20.413Z,100087.89
2022-10-24T07:51:22.919Z,100090.00
2022-10-24T07:52:24.699Z,100088.79
2022-10-24T07:53:26.469Z,100092.10
2022-10-24T07:54:29.730Z,100090.41
2022-10-24T07:55:32.793Z,100096.62
2022-10-24T07:56:35.478Z,100085.77
2022-10-24T07:57:37.449Z,100091.58
2022-10-24T07:58:39.875Z,100091.83
2022-10-24T07:59:42.675Z,100093.97
2022-10-24T08:00:46.220Z,100101.39
2022-10-24T08:01:49.142Z,100091.66
2022-10-24T08:02:51.773Z,100087.06
2022-10-24T08:03:55.113Z,100088.76
2022-10-24T08:04:56.969Z,100094.52
2022-10-24T08:05:58.832Z,100091.58
2022-10-24T08:07:01.312Z,100100.23
2022-10-24T08:08:27.640Z,100092.98
2022-10-24T08:09:09.167Z,100103.75
2022-10-24T08:10:16.137Z,100087.98
2022-10-24T08:12:32.184Z,100088.80
2022-10-24T08:13:34.962Z,100092.41
2022-10-24T08:16:06.464Z,100095.52
2022-10-24T08:17:09.836Z,100088.31
2022-10-24T08:18:12.211Z,100088.47
2022-10-24T08:19:16.202Z,100090.62
2022-10-24T08:20:19.075Z,100095.33
2022-10-24T08:21:23.289Z,100092.90
2022-10-24T08:22:25.992Z,100092.90
2022-10-24T08:23:28.611Z,100088.89
2022-10-24T08:24:30.680Z,100091.37
2022-10-24T08:25:32.593Z,100097.02
2022-10-24T08:26:34.410Z,100096.42
2022-10-24T08:27:37.341Z,100096.59
2022-10-24T08:28:47.220Z,100089.72
2022-10-24T08:29:49.582Z,100098.63
2022-10-24T08:30:57.691Z,100094.15
2022-10-24T08:31:59.985Z,100096.84
2022-10-24T08:33:01.678Z,100085.36
2022-10-24T08:34:03.809Z,100085.44
2022-10-24T08:35:07.953Z,100082.77
2022-10-24T08:36:22.800Z,100085.14
2022-10-24T08:37:25.287Z,100078.80
2022-10-24T08:38:29.571Z,100081.91
2022-10-24T08:39:31.428Z,100090.03
2022-10-24T08:40:33.976Z,100086.06
2022-10-24T08:41:39.947Z,100089.17
2022-10-24T08:42:43.272Z,100093.67
2022-10-24T08:43:45.997Z,100091.70
2022-10-24T08:44:47.772Z,100091.15
2022-10-24T08:46:14.908Z,100091.20
2022-10-24T08:48:49.896Z,100092.69
2022-10-24T08:49:55.360Z,100090.08
2022-10-24T08:51:01.114Z,100091.68
2022-10-24T08:52:18.477Z,100084.05
2022-10-24T08:53:24.364Z,100090.14
2022-10-24T08:54:32.949Z,100082.89
2022-10-24T08:55:49.740Z,100089.48
2022-10-24T08:56:54.774Z,100094.36
2022-10-24T08:57:59.502Z,100094.31
2022-10-24T08:59:03.855Z,100086.16
2022-10-24T09:00:22.672Z,100087.25
2022-10-24T09:01:37.121Z,100086.77
2022-10-24T09:02:42.230Z,100084.63
2022-10-24T09:03:56.654Z,100087.30
2022-10-24T09:04:56.003Z,100086.85
2022-10-24T09:06:01.553Z,100081.55
2022-10-24T09:07:05.133Z,100079.02
2022-10-24T09:08:18.242Z,100081.55
2022-10-24T09:09:27.292Z,100084.80
2022-10-24T09:10:44.637Z,100084.01
2022-10-24T09:11:55.927Z,100080.16
2022-10-24T13:33:40.104Z,100013.11
2022-10-24T13:34:52.070Z,100025.71
2022-10-24T13:36:11.970Z,100021.95
2022-10-24T13:37:17.651Z,100024.06
2022-10-24T13:39:28.099Z,100037.41
2022-10-24T13:40:33.152Z,100032.03
2022-10-24T13:41:45.105Z,100033.11
2022-10-24T13:43:06.841Z,100035.98
2022-10-24T13:44:13.138Z,100032.89
2022-10-24T13:45:24.167Z,100033.48
2022-10-24T13:46:29.852Z,100032.98
2022-10-24T13:47:38.505Z,100036.77
2022-10-24T13:48:45.102Z,100037.05
2022-10-24T13:49:53.434Z,100038.39
2022-10-24T13:51:19.059Z,100030.02
2022-10-24T13:52:27.577Z,100038.38
2022-10-24T13:53:33.982Z,100033.63
2022-10-24T13:54:38.372Z,100032.63
2022-10-24T13:55:46.393Z,100029.92
2022-10-24T13:56:48.879Z,100021.50
2022-10-24T13:57:54.203Z,100021.97
2022-10-24T13:58:56.268Z,100025.16
2022-10-24T14:00:01.664Z,100031.52
2022-10-24T14:01:08.889Z,100033.02
2022-10-24T14:02:17.502Z,100032.76
2022-10-24T14:03:23.032Z,100030.05
2022-10-24T14:04:26.865Z,100040.20
2022-10-24T14:05:35.090Z,100039.91
2022-10-24T14:06:38.254Z,100034.44
2022-10-24T14:07:41.207Z,100037.48
2022-10-24T14:08:56.069Z,100033.73
2022-10-24T14:09:57.207Z,100041.27
2022-10-24T14:11:02.520Z,100030.80
2022-10-24T14:12:04.932Z,100033.41
2022-10-24T14:13:10.522Z,100034.94
2022-10-24T14:15:34.505Z,100037.77
2022-10-24T14:16:36.768Z,100029.10
2022-10-24T14:17:38.682Z,100039.33
2022-10-24T14:18:42.949Z,100030.39
2022-10-24T14:19:57.120Z,100031.92
2022-10-24T14:21:01.961Z,100035.30
2022-10-24T14:22:07.502Z,100037.63
2022-10-24T14:23:26.349Z,100038.22
2022-10-24T14:24:30.657Z,100034.74
2022-10-24T14:25:37.069Z,100031.92
2022-10-24T14:26:41.126Z,100029.05
2022-10-24T14:27:44.643Z,100041.89
2022-10-24T14:28:50.857Z,100045.78
2022-10-24T14:29:59.587Z,100047.48
2022-10-24T14:31:06.453Z,100042.24
2022-10-24T14:32:13.696Z,100042.91
2022-10-24T14:33:19.325Z,100045.62
2022-10-24T14:34:22.352Z,100044.45
2022-10-24T14:35:24.832Z,100043.42
2022-10-24T14:36:32.111Z,100046.77
2022-10-24T14:37:38.837Z,100041.73
2022-10-24T14:38:45.798Z,100044.25
2022-10-24T14:39:47.973Z,100042.50
2022-10-24T14:41:01.255Z,100051.02
2022-10-24T14:41:55.542Z,100046.31
2022-10-24T14:43:01.461Z,100052.22
2022-10-24T14:44:05.833Z,100040.68
2022-10-24T14:45:24.090Z,100049.27
2022-10-24T14:46:33.294Z,100043.79
2022-10-24T14:47:38.684Z,100048.34
2022-10-24T14:48:43.803Z,100051.73
2022-10-24T14:49:46.090Z,100038.89
2022-10-24T14:50:48.195Z,100033.58
2022-10-24T14:52:55.114Z,100038.22
2022-10-24T14:53:57.692Z,100027.94
2022-10-24T14:55:05.911Z,100026.41
2022-10-24T14:56:21.147Z,100015.45
2022-10-24T14:57:23.498Z,100013.58
2022-10-24T14:58:28.609Z,100014.09
2022-10-24T14:59:36.850Z,100013.08
2022-10-24T15:00:39.870Z,100013.66
2022-10-24T15:01:45.489Z,100018.16
2022-10-24T15:02:51.316Z,100013.75
2022-10-24T15:03:59.278Z,100013.08
2022-10-24T15:05:22.923Z,100020.50
2022-10-24T15:06:28.080Z,100016.13
2022-10-24T15:07:34.740Z,100016.80
2022-10-24T15:08:39.272Z,100020.00
2022-10-24T15:09:59.106Z,100025.23
2022-10-24T15:11:07.658Z,100029.45
2022-10-24T15:12:12.355Z,100027.59
2022-10-24T15:13:17.903Z,100032.89
2022-10-24T15:14:39.048Z,100044.13
2022-10-24T15:15:51.111Z,100059.47
2022-10-24T15:16:54.106Z,100052.83
2022-10-24T15:18:00.977Z,100069.94
2022-10-24T15:19:04.788Z,100062.34
2022-10-24T15:20:11.045Z,100071.72
2022-10-24T15:21:16.449Z,100074.18
2022-10-24T15:22:24.742Z,100075.88
2022-10-24T15:23:39.348Z,100077.71
2022-10-24T15:24:44.398Z,100076.66
2022-10-24T15:25:51.180Z,100078.19
2022-10-24T15:27:09.153Z,100080.33
2022-10-24T15:28:20.344Z,100071.23
2022-10-24T15:29:22.689Z,100083.48
2022-10-24T15:30:32.846Z,100081.50
2022-10-24T15:31:37.585Z,100087.58
2022-10-24T15:32:39.542Z,100094.55
2022-10-24T15:33:41.961Z,100101.27
2022-10-24T15:34:44.694Z,100108.63
2022-10-24T15:35:50.300Z,100107.06
2022-10-24T15:36:53.816Z,100105.95
2022-10-24T15:38:05.642Z,100101.30
2022-10-24T15:39:14.576Z,100095.39
2022-10-24T15:40:23.086Z,100096.79
2022-10-24T15:41:26.473Z,100094.48
2022-10-24T15:42:28.442Z,100091.12
2022-10-24T15:43:30.072Z,100082.26
2022-10-24T15:44:32.269Z,100076.77
2022-10-24T15:45:34.040Z,100075.64
2022-10-24T15:46:36.371Z,100079.86
2022-10-24T15:47:39.227Z,100069.64
2022-10-24T15:48:41.669Z,100075.14
2022-10-24T15:49:43.811Z,100075.47
2022-10-24T15:50:47.192Z,100074.98
2022-10-24T15:51:51.109Z,100067.94
2022-10-24T15:52:55.804Z,100073.72
2022-10-24T15:53:58.704Z,100068.13
2022-10-24T15:55:01.636Z,100076.28
2022-10-24T15:56:04.407Z,100071.92
2022-10-24T15:57:06.385Z,100072.62
2022-10-24T15:58:11.634Z,100069.09
2022-10-24T15:59:15.341Z,100068.63
2022-10-24T16:00:21.768Z,100067.33
2022-10-24T16:01:30.973Z,100072.97
2022-10-24T16:02:33.841Z,100064.05
2022-10-24T16:03:35.864Z,100064.83
2022-10-24T16:04:38.945Z,100069.27
2022-10-24T16:05:45.600Z,100067.13
2022-10-24T16:06:49.718Z,100074.73
2022-10-24T16:07:58.731Z,100072.34
2022-10-24T16:09:04.267Z,100077.71
2022-10-24T16:10:08.152Z,100073.41
2022-10-24T16:11:11.553Z,100076.55
2022-10-24T16:12:13.966Z,100076.80
2022-10-24T16:13:17.614Z,100072.02
2022-10-24T16:14:21.247Z,100070.94
2022-10-24T16:15:27.568Z,100074.94
2022-10-24T16:16:29.554Z,100076.16
2022-10-24T16:17:32.386Z,100067.02
2022-10-24T16:18:34.662Z,100065.27
2022-10-24T16:19:38.498Z,100063.58
2022-10-24T16:20:42.723Z,100064.27
2022-10-24T16:21:45.100Z,100068.80
2022-10-24T16:22:47.759Z,100076.97
2022-10-24T16:24:54.019Z,100079.95
2022-10-24T16:25:56.030Z,100083.23
2022-10-24T16:26:58.956Z,100075.55
2022-10-24T16:28:01.586Z,100083.54
2022-10-24T16:29:04.359Z,100081.68
2022-10-24T16:30:08.126Z,100083.98
2022-10-24T16:31:12.961Z,100082.33
2022-10-24T16:32:15.901Z,100082.33
2022-10-24T16:33:19.724Z,100086.16
2022-10-24T16:34:22.212Z,100085.55
2022-10-24T16:35:30.587Z,100074.18
2022-10-24T16:36:33.694Z,100074.18
2022-10-24T16:37:36.080Z,100064.74
2022-10-24T16:38:37.925Z,100060.69
2022-10-24T16:39:39.691Z,100058.13
2022-10-24T16:40:45.046Z,100056.19
2022-10-24T16:41:46.974Z,100055.48
2022-10-24T16:42:50.957Z,100065.08
2022-10-24T16:43:57.276Z,100065.75
2022-10-24T16:44:59.474Z,100066.53
2022-10-24T16:46:02.409Z,100071.63
2022-10-24T16:47:05.415Z,100077.87
2022-10-24T16:48:07.766Z,100076.77
2022-10-24T16:49:10.987Z,100079.45
2022-10-24T16:50:16.816Z,100073.40
2022-10-24T16:51:22.349Z,100084.33
2022-10-24T16:52:25.080Z,100082.67
2022-10-24T16:53:27.163Z,100090.12
2022-10-24T16:54:29.072Z,100081.97
2022-10-24T16:55:31.971Z,100083.05
2022-10-24T16:56:34.165Z,100081.14
2022-10-24T16:57:36.466Z,100079.23
2022-10-24T16:58:41.223Z,100071.13